createdAt,value
2022-08-12T00:04:59.897Z,101339.80
2022-08-12T00:10:23.585Z,101343.60
2022-08-12T00:15:46.252Z,101347.80
2022-08-12T00:21:08.397Z,101351.60
2022-08-12T00:26:34.134Z,101344.20
2022-08-12T00:31:55.872Z,101345.80
2022-08-12T00:37:17.618Z,101347.00
2022-08-12T00:42:24.236Z,101347.60
2022-08-12T00:47:27.420Z,101347.00
2022-08-12T00:52:31.072Z,101345.40
2022-08-12T00:57:37.239Z,101339.40
2022-08-12T01:02:47.427Z,101338.40
2022-08-12T01:08:10.793Z,101337.60
2022-08-12T01:13:19.407Z,101343.80
2022-08-12T01:18:28.335Z,101339.20
2022-08-12T01:24:30.327Z,101336.20
2022-08-12T01:29:36.597Z,101336.00
2022-08-12T01:34:57.019Z,101337.20
2022-08-12T01:40:34.914Z,101335.00
2022-08-12T01:45:29.855Z,101339.20
2022-08-12T01:52:04.630Z,101336.20
2022-08-12T01:56:49.488Z,101339.00
2022-08-12T02:01:57.092Z,101333.20
2022-08-12T02:07:55.833Z,101336.20
2022-08-12T02:13:52.101Z,101334.20
2022-08-12T02:19:31.729Z,101323.40
2022-08-12T02:24:42.671Z,101330.80
2022-08-12T02:29:46.142Z,101330.60
2022-08-12T02:34:50.595Z,101337.40
2022-08-12T02:40:00.217Z,101332.20
2022-08-12T02:45:09.230Z,101325.80
2022-08-12T02:50:18.019Z,101325.80
2022-08-12T02:55:34.290Z,101328.40
2022-08-12T03:00:40.622Z,101325.20
2022-08-12T03:06:16.073Z,101323.00
2022-08-12T03:12:05.262Z,101324.80
2022-08-12T03:17:24.559Z,101315.80
2022-08-12T03:22:32.359Z,101311.00
2022-08-12T03:27:51.952Z,101308.00
2022-08-12T03:32:58.539Z,101306.40
2022-08-12T03:38:08.780Z,101303.60
2022-08-12T03:43:42.657Z,101309.80
2022-08-12T03:49:05.013Z,101309.60
2022-08-12T04:00:58.819Z,101312.40
2022-08-12T04:06:02.145Z,101310.20
2022-08-12T04:11:27.029Z,101308.00
2022-08-12T04:16:33.707Z,101310.60
2022-08-12T04:21:38.289Z,101317.00
2022-08-12T04:27:02.799Z,101333.40
2022-08-12T04:32:07.549Z,101336.80
2022-08-12T04:37:12.815Z,101335.60
2022-08-12T04:42:16.520Z,101342.20
2022-08-12T04:47:22.268Z,101343.40
2022-08-12T04:52:34.391Z,101342.40
2022-08-12T04:57:38.979Z,101336.20
2022-08-12T05:02:43.014Z,101331.60
2022-08-12T05:07:54.683Z,101327.60
2022-08-12T05:13:02.917Z,101324.00
2022-08-12T05:18:20.401Z,101321.20
2022-08-12T05:23:23.898Z,101315.00
2022-08-12T05:28:30.523Z,101310.20
2022-08-12T05:33:38.713Z,101309.20
2022-08-12T05:38:56.550Z,101309.00
2022-08-12T05:44:08.034Z,101304.40
2022-08-12T05:49:11.677Z,101305.60
2022-08-12T05:54:16.709Z,101303.40
2022-08-12T05:59:21.861Z,101307.00
2022-08-12T06:04:25.076Z,101306.60
2022-08-12T06:09:31.127Z,101305.80
2022-08-12T06:14:38.739Z,101308.80
2022-08-12T06:20:27.229Z,101310.00
2022-08-12T06:25:07.908Z,101302.40
2022-08-12T06:30:18.559Z,101300.80
2022-08-12T06:35:49.513Z,101311.00
2022-08-12T06:41:20.400Z,101313.60
2022-08-12T06:46:27.118Z,101311.20
2022-08-12T06:51:32.646Z,101305.40
2022-08-12T07:02:00.083Z,101305.00
2022-08-12T07:07:05.831Z,101307.00
2022-08-12T07:12:17.360Z,101311.60
2022-08-12T07:17:20.558Z,101316.80
2022-08-12T07:22:23.751Z,101321.00
2022-08-12T07:27:27.677Z,101314.00
2022-08-12T07:32:30.945Z,101309.80
2022-08-12T07:37:35.444Z,101307.60
2022-08-12T07:42:41.764Z,101306.40
2022-08-12T07:47:45.346Z,101300.80
2022-08-12T07:52:49.146Z,101301.80
2022-08-12T07:57:59.503Z,101299.00
2022-08-12T08:03:02.940Z,101293.20
2022-08-12T08:08:25.299Z,101285.00
2022-08-12T08:13:28.514Z,101289.00
2022-08-12T08:18:33.376Z,101288.80
2022-08-12T08:23:57.576Z,101291.40
2022-08-12T08:29:03.120Z,101296.40
2022-08-12T08:34:49.371Z,101296.40
2022-08-12T08:39:32.177Z,101296.60
2022-08-12T08:44:39.633Z,101290.80
2022-08-12T08:49:42.805Z,101285.20
2022-08-12T08:54:47.931Z,101278.20
2022-08-12T08:59:51.739Z,101283.00
2022-08-12T09:05:13.858Z,101281.60
2022-08-12T09:10:30.718Z,101283.20
2022-08-12T09:15:36.761Z,101281.00
2022-08-12T09:20:42.363Z,101292.20
2022-08-12T09:25:48.653Z,101289.80
2022-08-12T09:30:54.115Z,101284.60
2022-08-12T09:36:05.634Z,101287.00
2022-08-12T09:42:33.817Z,101288.20
2022-08-12T09:46:34.456Z,101284.40
2022-08-12T09:51:43.715Z,101280.20
2022-08-12T09:56:57.994Z,101282.40
2022-08-12T10:02:45.959Z,101272.40
2022-08-12T10:07:40.283Z,101276.60
2022-08-12T10:13:09.284Z,101272.40
2022-08-12T10:18:14.918Z,101261.80
2022-08-12T10:23:18.575Z,101264.80
2022-08-12T10:28:40.216Z,101254.40
2022-08-12T10:33:54.922Z,101253.00
2022-08-12T10:40:01.627Z,101245.00
2022-08-12T10:44:36.724Z,101248.20
2022-08-12T10:50:02.279Z,101243.40
2022-08-12T10:55:03.289Z,101242.20
2022-08-12T11:00:34.600Z,101238.00
2022-08-12T11:07:06.646Z,101223.60
2022-08-12T11:10:58.208Z,101223.60
2022-08-12T11:16:19.103Z,101226.80
2022-08-12T11:21:56.473Z,101215.40
2022-08-12T11:26:52.024Z,101208.00
2022-08-12T11:32:02.123Z,101204.60
2022-08-12T11:37:25.756Z,101201.00
2022-08-12T11:42:32.398Z,101201.60
2022-08-12T11:47:50.003Z,101194.20
2022-08-12T11:52:59.050Z,101194.20
2022-08-12T11:58:39.366Z,101195.80
2022-08-12T12:03:26.515Z,101202.20
2022-08-12T12:08:52.956Z,101206.00
2022-08-12T12:14:08.891Z,101200.60
2022-08-12T12:19:14.499Z,101192.00
2022-08-12T12:24:21.879Z,101188.20
2022-08-12T12:30:13.574Z,101187.60
2022-08-12T12:35:44.438Z,101163.00
2022-08-12T12:40:14.573Z,101164.60
2022-08-12T12:45:19.460Z,101161.20
2022-08-12T12:50:35.272Z,101157.20
2022-08-12T12:55:39.847Z,101155.20
2022-08-12T13:00:51.033Z,101146.20
2022-08-12T13:05:55.792Z,101148.60
2022-08-12T13:11:04.362Z,101146.60
2022-08-12T13:16:14.262Z,101152.40
2022-08-12T13:21:32.800Z,101141.80
2022-08-12T13:26:38.044Z,101136.40
2022-08-12T13:32:13.530Z,101129.80
2022-08-12T13:37:09.193Z,101133.60
2022-08-12T13:42:14.586Z,101122.60
2022-08-12T13:47:20.953Z,101122.20
2022-08-12T13:52:25.708Z,101114.20
2022-08-12T13:57:44.454Z,101112.80
2022-08-12T14:02:53.330Z,101111.00
2022-08-12T14:08:07.852Z,101114.60
2022-08-12T14:13:16.933Z,101106.40
2022-08-12T14:18:45.587Z,101103.00
2022-08-12T14:24:04.726Z,101106.60
2022-08-12T14:29:11.934Z,101097.80
2022-08-12T14:34:35.206Z,101095.20
2022-08-12T14:39:39.206Z,101099.80
2022-08-12T14:44:58.039Z,101109.80
2022-08-12T14:50:58.836Z,101107.00
2022-08-12T15:01:15.847Z,101103.60
2022-08-12T15:06:39.453Z,101099.20
2022-08-12T15:11:55.751Z,101093.60
2022-08-12T15:17:07.506Z,101093.20
2022-08-12T15:22:37.519Z,101083.80
2022-08-12T15:28:04.109Z,101080.00
2022-08-12T15:32:58.563Z,101079.40
2022-08-12T15:38:11.192Z,101083.80
2022-08-12T15:43:51.658Z,101073.40
2022-08-12T15:48:46.677Z,101076.80
2022-08-12T15:54:05.858Z,101079.00
2022-08-12T15:59:51.487Z,101083.80
2022-08-12T16:04:52.735Z,101081.00
2022-08-12T16:10:05.500Z,101074.80
2022-08-12T16:15:14.901Z,101080.60
2022-08-12T16:20:32.996Z,101085.80
2022-08-12T16:26:03.005Z,101083.20
2022-08-12T16:31:05.802Z,101079.80
2022-08-12T16:36:18.809Z,101076.00
2022-08-12T16:41:23.135Z,101070.20
2022-08-12T16:46:32.515Z,101066.60
2022-08-12T16:51:40.548Z,101060.60
2022-08-12T16:56:55.006Z,101064.80
2022-08-12T17:02:00.884Z,101060.80
2022-08-12T17:07:10.994Z,101063.40
2022-08-12T17:12:23.961Z,101064.00
2022-08-12T17:17:39.162Z,101062.40
2022-08-12T17:22:43.960Z,101062.40
2022-08-12T17:27:57.515Z,101063.20
2022-08-12T17:33:06.751Z,101057.40
2022-08-12T17:38:14.119Z,101051.40
2022-08-12T17:43:55.616Z,101050.00
2022-08-12T17:48:55.350Z,101062.40
2022-08-12T17:54:10.131Z,101062.20
2022-08-12T17:59:47.869Z,101062.80
2022-08-12T18:05:05.051Z,101061.60
2022-08-12T18:10:12.081Z,101056.60
2022-08-12T18:15:26.146Z,101052.00
2022-08-12T18:20:45.036Z,101052.00
2022-08-12T18:26:15.551Z,101058.80
2022-08-12T18:31:44.407Z,101066.40
2022-08-12T18:36:55.587Z,101068.00
2022-08-12T18:42:00.146Z,101068.80
2022-08-12T18:47:09.893Z,101068.00
2022-08-12T18:52:17.874Z,101062.00
2022-08-12T18:57:45.699Z,101059.40
2022-08-12T19:02:53.355Z,101059.40
2022-08-12T19:08:01.223Z,101065.80
2022-08-12T19:13:25.531Z,101067.80
2022-08-12T19:18:40.389Z,101066.60
2022-08-12T19:23:44.537Z,101061.00
2022-08-12T19:28:49.703Z,101056.60
2022-08-12T19:34:25.435Z,101057.60
2022-08-12T19:39:22.918Z,101067.20
2022-08-12T19:44:28.899Z,101066.20
2022-08-12T19:49:32.219Z,101065.40
2022-08-12T19:54:37.225Z,101067.20
2022-08-12T19:59:43.063Z,101072.60
2022-08-12T20:06:06.791Z,101083.00
2022-08-12T20:10:36.301Z,101078.80
2022-08-12T20:15:44.906Z,101079.20
2022-08-12T20:20:48.847Z,101085.00
2022-08-12T20:26:01.879Z,101088.80
2022-08-12T20:31:08.800Z,101098.20
2022-08-12T20:36:41.611Z,101094.80
2022-08-12T20:41:41.493Z,101096.60
2022-08-12T20:46:45.425Z,101096.20
2022-08-12T20:51:55.366Z,101103.80
2022-08-12T20:57:00.960Z,101098.80
2022-08-12T21:02:05.815Z,101086.20
2022-08-12T21:07:11.395Z,101097.20
2022-08-12T21:12:28.783Z,101102.60
2022-08-12T21:18:08.715Z,101104.20
2022-08-12T21:23:06.022Z,101101.20
2022-08-12T21:28:09.546Z,101099.00
2022-08-12T21:33:14.768Z,101103.40
2022-08-12T21:38:20.402Z,101087.80
2022-08-12T21:43:43.638Z,101089.60
2022-08-12T21:48:49.797Z,101091.40
2022-08-12T21:54:07.123Z,101089.20
2022-08-12T21:59:14.526Z,101087.20
2022-08-12T22:04:37.895Z,101082.20
2022-08-12T22:09:42.883Z,101070.60
2022-08-12T22:14:48.821Z,101071.60
2022-08-12T22:19:52.089Z,101076.80
2022-08-12T22:24:58.421Z,101073.00
2022-08-12T22:30:20.517Z,101069.00
2022-08-12T22:35:56.575Z,101066.00
2022-08-12T22:41:27.657Z,101066.20
2022-08-12T22:46:34.856Z,101068.60
2022-08-12T22:51:59.696Z,101065.80
2022-08-12T22:57:02.743Z,101061.20
2022-08-12T23:02:07.737Z,101057.80
2022-08-12T23:07:14.630Z,101056.20
2022-08-12T23:12:41.169Z,101052.80
2022-08-12T23:17:50.347Z,101048.20
2022-08-12T23:23:03.058Z,101042.00
2022-08-12T23:28:29.998Z,101036.60
2022-08-12T23:34:00.773Z,101040.20
2022-08-12T23:39:01.726Z,101044.00
2022-08-12T23:44:06.922Z,101039.40
2022-08-12T23:49:55.777Z,101034.80
2022-08-12T23:54:38.990Z,101033.60
2022-08-12T23:59:55.506Z,101034.60
